Data for 09/08/2006

Time Sea-Level Adjusted Pressure Absolute Pressure Temperature Relative Humidity Dew Point Precipitation   
(mb) (inHg) (mb) (inHg) (C) (F) (%) (C) (F) (mm) (in)
00:05 1021 30.15 850 25.1 12.7 54.9 49 2.3 36.1 0
00:10 1021 30.15 850 25.1 12 53.6 50 1.9 35.4 0
00:15 1021 30.15 850 25.1 11.8 53.2 52 2.2 36 0
00:20 1021 30.15 850 25.1 11.4 52.5 52 2 35.5 0
00:25 1021 30.15 850 25.1 11.1 52 52 1.7 35 0
00:30 1021 30.15 850 25.1 11.2 52.1 52 1.8 35.2 0
00:35 1021 30.15 850 25.1 11.2 52.2 53 2.1 35.8 0
00:40 1021 30.15 850 25.1 10.8 51.5 54 1.9 35.5 0
00:45 1021 30.15 850 25.1 10.9 51.6 52 1.6 34.9 0
00:50 1021 30.15 850 25.1 11.8 53.2 45 0.4 32.7 0
00:55 1021 30.15 850 25.1 13.5 56.3 43 1.1 33.9 0
01:00 1020 30.12 850 25.1 13.3 56 46 1.9 35.4 0
01:05 1020 30.12 850 25.1 12.5 54.4 47 1.6 34.8 0
01:10 1021 30.15 850 25.1 12.3 54.2 48 1.6 34.8 0
01:15 1021 30.15 850 25.1 11.9 53.3 50 1.8 35.3 0
01:20 1021 30.15 850 25.1 11.3 52.4 51 1.7 35.1 0
01:25 1020 30.12 850 25.1 12.1 53.7 46 0.8 33.5 0
01:30 1020 30.12 850 25.1 12.6 54.7 47 1.6 35 0
01:35 1020 30.12 850 25.1 12 53.6 48 1.6 34.8 0
01:40 1020 30.12 850 25.1 11.8 53.3 49 1.5 34.6 0
01:45 1020 30.12 850 25.1 11.8 53.2 49 1.4 34.5 0
01:50 1020 30.12 850 25.1 12.1 53.7 47 1.1 34 0
01:55 1020 30.12 850 25.1 12.5 54.6 45 1 33.8 0
02:00 1020 30.12 849 25.07 13 55.3 45 1.4 34.5 0
02:05 1020 30.12 849 25.07 13.2 55.7 44 1.1 34 0
02:10 1020 30.12 849 25.07 13.9 56.9 42 1.2 34.1 0
02:15 1020 30.12 849 25.07 13.7 56.6 42 1 33.9 0
02:20 1020 30.12 849 25.07 14.4 57.9 37 0.1 32.2 0
02:25 1020 30.12 849 25.07 15.1 59.2 37 0.5 32.9 0
02:30 1020 30.12 849 25.07 15 58.9 39 1.2 34.1 0
02:35 1020 30.12 849 25.07 15.3 59.6 34 -0.3 31.5 0
02:40 1020 30.12 849 25.07 16.2 61.1 32 -0.6 31 0
02:45 1020 30.12 849 25.07 16.6 61.9 31 -0.6 30.9 0
02:50 1020 30.12 849 25.07 16.8 62.2 31 -0.4 31.3 0
02:55 1020 30.12 849 25.07 16.9 62.3 31 -0.1 31.7 0
03:00 1020 30.12 849 25.07 16.8 62.3 31 -0.2 31.7 0
03:05 1020 30.12 849 25.07 16.8 62.2 30 -0.5 31 0
03:10 1020 30.12 849 25.07 17 62.7 30 -0.5 31.2 0
03:15 1020 30.12 849 25.07 17 62.6 31 0 32 0
03:20 1020 30.12 849 25.07 16.7 62 31 -0.4 31.3 0
03:25 1020 30.12 849 25.07 16.6 61.8 31 -0.4 31.2 0
03:30 1020 30.12 849 25.07 16.7 62 31 -0.2 31.6 0
03:35 1020 30.12 849 25.07 16.5 61.6 32 -0.2 31.6 0
03:40 1020 30.12 849 25.07 16.5 61.6 32 -0.4 31.3 0
03:45 1020 30.12 849 25.07 16.5 61.7 32 -0.2 31.7 0
03:50 1020 30.12 849 25.07 16.3 61.4 32 -0.3 31.4 0
03:55 1020 30.12 849 25.07 16.4 61.4 31 -0.6 30.9 0
04:00 1020 30.12 849 25.07 16.6 61.9 31 -0.6 30.8 0
04:05 1020 30.12 849 25.07 16.7 62 30 -0.7 30.8 0
04:10 1020 30.12 849 25.07 16.8 62.2 29 -1 30.2 0
04:15 1020 30.12 849 25.07 16.8 62.3 30 -0.9 30.4 0
04:20 1020 30.12 849 25.07 16.7 62.1 30 -0.8 30.5 0
04:25 1020 30.12 849 25.07 16.7 62.1 30 -0.9 30.4 0
04:30 1020 30.12 849 25.07 16.8 62.2 29 -1 30.1 0
04:35 1020 30.12 849 25.07 16.9 62.4 29 -1.2 29.8 0
04:40 1020 30.12 849 25.07 17.1 62.8 29 -0.9 30.3 0
04:45 1020 30.12 849 25.07 17 62.6 29 -0.9 30.4 0
04:50 1020 30.12 849 25.07 16.9 62.4 30 -0.7 30.8 0
04:55 1020 30.12 849 25.07 16.1 61 34 0.3 32.5 0
05:00 1020 30.12 849 25.07 15.3 59.5 33 -1 30.3 0
05:05 1020 30.12 849 25.07 15.4 59.8 33 -0.5 31 0
05:10 1020 30.12 849 25.07 15.1 59.1 35 -0.2 31.6 0
05:15 1020 30.12 849 25.07 14.6 58.3 33 -1.2 29.8 0
05:20 1020 30.12 849 25.07 15.6 60.1 32 -0.8 30.6 0
05:25 1020 30.12 849 25.07 15.1 59.2 37 0.5 32.8 0
05:30 1020 30.12 850 25.1 14 57.2 38 -0 31.9 0
05:35 1020 30.12 850 25.1 14.2 57.5 36 -0.6 31 0
05:40 1020 30.12 850 25.1 14.7 58.5 34 -0.7 30.8 0
05:45 1020 30.12 849 25.07 15 58.9 34 -0.9 30.4 0
05:50 1020 30.12 849 25.07 15.2 59.3 34 -0.4 31.2 0
05:55 1020 30.12 849 25.07 14.9 58.8 35 -0.3 31.5 0
06:00 1020 30.12 850 25.1 14.5 58.1 37 0.2 32.3 0
06:05 1020 30.12 850 25.1 13.5 56.2 41 0.4 32.8 0
06:10 1020 30.12 850 25.1 12.7 54.9 42 0.4 32.6 0
06:15 1020 30.12 850 25.1 12.5 54.5 43 0.4 32.8 0
06:20 1020 30.12 850 25.1 12.6 54.7 43 0.3 32.6 0
06:25 1020 30.12 850 25.1 12.8 55.1 45 1.2 34.2 0
06:30 1020 30.12 850 25.1 12 53.5 46 0.6 33.1 0
06:35 1020 30.12 850 25.1 12.2 54 44 0.4 32.8 0
06:40 1021 30.15 850 25.1 12.4 54.3 45 0.7 33.3 0
06:45 1021 30.15 850 25.1 12.1 53.9 47 1.2 34.1 0
06:50 1021 30.15 850 25.1 11 51.8 51 1.2 34.2 0
06:55 1021 30.15 850 25.1 10.6 51 52 1.1 34 0
07:00 1021 30.15 850 25.1 10.5 51 52 1.2 34.2 0
07:05 1021 30.15 850 25.1 10.5 50.9 52 1.2 34.1 0
07:10 1021 30.15 850 25.1 10.5 50.9 54 1.6 34.9 0
07:15 1021 30.15 850 25.1 10.2 50.4 54 1.4 34.6 0
07:20 1021 30.15 850 25.1 10 50 56 1.8 35.2 0
07:25 1021 30.15 850 25.1 9.9 49.8 55 1.3 34.3 0
07:30 1021 30.15 850 25.1 9.7 49.4 56 1.5 34.6 0
07:35 1021 30.15 850 25.1 9.7 49.4 56 1.3 34.4 0
07:40 1021 30.15 850 25.1 10 50.1 55 1.4 34.5 0
07:45 1021 30.15 850 25.1 10.6 51 53 1.4 34.6 0
07:50 1021 30.15 850 25.1 11.6 52.8 50 1.6 35 0
07:55 1021 30.15 850 25.1 12 53.7 49 1.8 35.3 0
08:00 1021 30.15 850 25.1 12.4 54.2 50 2.3 36.2 0
08:05 1021 30.15 850 25.1 12.4 54.3 49 2.1 35.9 0
08:10 1021 30.15 850 25.1 12.9 55.2 48 2.2 36 0
08:15 1021 30.15 850 25.1 13.2 55.8 47 2.3 36.2 0
08:20 1021 30.15 850 25.1 13.6 56.5 46 2.3 36.1 0
08:25 1021 30.15 850 25.1 14 57.1 46 2.5 36.6 0
08:30 1021 30.15 850 25.1 14.1 57.4 47 3.2 37.7 0
08:35 1021 30.15 850 25.1 13.7 56.7 50 3.7 38.6 0
08:40 1021 30.15 850 25.1 14 57.2 49 3.5 38.3 0
08:45 1021 30.15 850 25.1 14.9 58.7 50 4.6 40.3 0
08:50 1021 30.15 850 25.1 15.4 59.7 45 3.8 38.8 0
08:55 1021 30.15 850 25.1 15.9 60.5 41 2.6 36.7 0
09:00 1021 30.15 850 25.1 16 60.7 43 3.4 38.1 0
09:05 1021 30.15 850 25.1 16.2 61.1 42 3.2 37.8 0
09:10 1021 30.15 850 25.1 16.5 61.6 42 3.6 38.4 0
09:15 1021 30.15 850 25.1 16.8 62.3 42 3.9 39.1 0
09:20 1021 30.15 850 25.1 17.2 63 38 3 37.4 0
09:25 1021 30.15 850 25.1 17.3 63.1 41 4.1 39.4 0
09:30 1021 30.15 850 25.1 17.6 63.7 41 4.3 39.7 0
09:35 1021 30.15 850 25.1 17.9 64.2 39 3.8 38.9 0
09:40 1021 30.15 850 25.1 17.9 64.2 40 4.2 39.5 0
09:45 1021 30.15 850 25.1 18.5 65.2 36 3.3 38 0
09:50 1021 30.15 850 25.1 18.8 65.9 39 4.8 40.6 0
09:55 1021 30.15 850 25.1 19.1 66.4 34 3 37.4 0
10:00 1021 30.15 850 25.1 18.8 65.8 37 4 39.2 0
10:05 1021 30.15 850 25.1 18.4 65.2 41 5.1 41.1 0
10:10 1021 30.15 850 25.1 18.3 65 39 4.4 39.9 0
10:15 1021 30.15 850 25.1 18.3 64.9 43 5.7 42.3 0
10:20 1021 30.15 850 25.1 18.1 64.5 45 6.2 43.1 0
10:25 1021 30.15 850 25.1 18.1 64.5 51 7.9 46.2 0
10:30 1021 30.15 850 25.1 17.8 64 52 7.9 46.3 0
10:35 1021 30.15 850 25.1 17.6 63.8 53 7.9 46.3 0
10:40 1021 30.15 850 25.1 17.7 63.8 47 6.2 43.2 0
10:45 1021 30.15 850 25.1 17.9 64.3 50 7.4 45.4 0
10:50 1021 30.15 850 25.1 17.9 64.2 46 6.1 43 0
10:55 1021 30.15 850 25.1 18.4 65.2 45 6.4 43.5 0
11:00 1021 30.15 850 25.1 18.7 65.7 46 6.9 44.4 0
11:05 1021 30.15 850 25.1 18.6 65.5 41 5.1 41.3 0
11:10 1021 30.15 850 25.1 18.6 65.4 46 6.7 44.1 0
11:15 1021 30.15 850 25.1 18.5 65.4 43 5.9 42.6 0
11:20 1021 30.15 850 25.1 18.7 65.6 41 5.3 41.6 0
11:25 1021 30.15 850 25.1 18.9 66 40 5 41 0
11:30 1021 30.15 850 25.1 19.1 66.3 43 6.5 43.6 0
11:35 1021 30.15 850 25.1 19.3 66.7 41 5.8 42.4 0
11:40 1021 30.15 850 25.1 19.6 67.3 37 4.7 40.5 0
11:45 1021 30.15 850 25.1 19.7 67.5 39 5.6 42 0
11:50 1021 30.15 850 25.1 19.7 67.5 40 6 42.8 0
11:55 1021 30.15 850 25.1 19.8 67.6 40 5.9 42.6 0
12:00 1021 30.15 850 25.1 19.8 67.6 39 5.6 42.1 0
12:05 1021 30.15 850 25.1 19.6 67.3 40 5.7 42.3 0
12:10 1021 30.15 850 25.1 19.7 67.4 37 4.7 40.5 0
12:15 1021 30.15 850 25.1 19.8 67.7 39 5.6 42.1 0
12:20 1021 30.15 850 25.1 19.9 67.8 40 6 42.8 0
12:25 1021 30.15 850 25.1 19.7 67.5 41 6.1 43 0
12:30 1021 30.15 850 25.1 19.5 67 39 5.3 41.6 0
12:35 1021 30.15 850 25.1 19.4 67 39 5.4 41.7 0
12:40 1021 30.15 850 25.1 19.2 66.5 41 5.7 42.3 0
12:45 1021 30.15 850 25.1 19.1 66.3 41 5.5 42 0
12:50 1021 30.15 850 25.1 19 66.1 41 5.5 41.9 0
12:55 1021 30.15 850 25.1 18.8 65.9 41 5.5 41.9 0
13:00 1021 30.15 850 25.1 18.7 65.6 45 6.6 43.9 0
13:05 1021 30.15 850 25.1 18.5 65.4 43 5.7 42.3 0
13:10 1021 30.15 850 25.1 18.7 65.7 39 4.4 40 0
13:15 1021 30.15 850 25.1 18.9 66 37 3.9 39.1 0
13:20 1021 30.15 850 25.1 19.2 66.5 38 4.7 40.4 0
13:25 1021 30.15 850 25.1 19.4 67 35 3.6 38.5 0
13:30 1021 30.15 850 25.1 19.6 67.3 37 4.6 40.2 0
13:35 1020 30.12 850 25.1 19.5 67 36 4.1 39.3 0
13:40 1020 30.12 850 25.1 19.6 67.3 38 5 40.9 0
13:45 1020 30.12 850 25.1 19.7 67.4 40 5.8 42.4 0
13:50 1020 30.12 850 25.1 19.4 66.9 46 7.7 45.9 0
13:55 1020 30.12 849 25.07 19 66.1 48 7.7 45.8 0
14:00 1020 30.12 849 25.07 18.7 65.7 42 5.8 42.4 0
14:05 1020 30.12 849 25.07 19 66.1 43 6.2 43.1 0
14:10 1020 30.12 849 25.07 19.2 66.5 42 6 42.8 0
14:15 1020 30.12 849 25.07 19.2 66.5 40 5.3 41.5 0
14:20 1020 30.12 849 25.07 19.2 66.5 44 6.8 44.3 0
14:25 1020 30.12 849 25.07 19.3 66.8 45 7.4 45.3 0
14:30 1020 30.12 849 25.07 19.2 66.6 42 6.1 43 0
14:35 1020 30.12 849 25.07 18.9 66.1 44 6.7 44 0
14:40 1020 30.12 849 25.07 18.9 65.9 43 6.1 43 0
14:45 1020 30.12 849 25.07 18.9 66 42 5.8 42.5 0
14:50 1020 30.12 849 25.07 19 66.1 40 5.2 41.3 0
14:55 1020 30.12 849 25.07 19.2 66.6 42 6.2 43.2 0
15:00 1020 30.12 849 25.07 19.5 67.1 37 4.6 40.3 0
15:05 1020 30.12 849 25.07 19.5 67.2 39 5.3 41.5 0
15:10 1020 30.12 849 25.07 19.7 67.4 46 7.9 46.2 0
15:15 1020 30.12 849 25.07 19.7 67.4 38 5 41 0
15:20 1020 30.12 849 25.07 19.7 67.5 38 5.3 41.5 0
15:25 1020 30.12 849 25.07 19.7 67.5 37 4.6 40.3 0
15:30 1019 30.09 849 25.07 19.9 67.8 38 5.2 41.4 0
15:35 1019 30.09 849 25.07 20.1 68.2 32 3.2 37.8 0
15:40 1019 30.09 849 25.07 20.3 68.6 32 3.1 37.5 0
15:45 1019 30.09 849 25.07 20.4 68.7 35 4.7 40.5 0
15:50 1019 30.09 848 25.04 20.6 69 35 4.8 40.6 0
15:55 1019 30.09 848 25.04 20.6 69.1 35 4.8 40.6 0
16:00 1019 30.09 848 25.04 20.7 69.2 33 3.8 38.9 0
16:05 1019 30.09 848 25.04 20.8 69.4 33 4.2 39.6 0
16:10 1019 30.09 848 25.04 20.8 69.5 32 3.9 39 0
16:15 1019 30.09 848 25.04 20.8 69.5 33 4.2 39.5 0
16:20 1019 30.09 848 25.04 21 69.8 36 5.5 41.9 0
16:25 1019 30.09 848 25.04 20.9 69.7 33 4.2 39.6 0
16:30 1019 30.09 848 25.04 20.8 69.5 31 3.2 37.8 0
16:35 1019 30.09 848 25.04 20.8 69.4 36 5.3 41.5 0
16:40 1019 30.09 848 25.04 20.5 68.9 38 6 42.8 0
16:45 1019 30.09 848 25.04 20.3 68.5 33 3.8 38.8 0
16:50 1019 30.09 848 25.04 20.1 68.1 36 4.9 40.8 0
16:55 1019 30.09 848 25.04 19.9 67.8 39 5.6 42.1 0
17:00 1019 30.09 848 25.04 19.7 67.4 42 6.5 43.7 0
17:05 1019 30.09 848 25.04 19.4 66.9 42 6.4 43.5 0
17:10 1019 30.09 848 25.04 19.2 66.5 46 7.3 45.1 0
17:15 1019 30.09 848 25.04 19 66.1 48 7.8 46 0
17:20 1019 30.09 848 25.04 18.8 65.8 46 7.2 45 0
17:25 1019 30.09 848 25.04 18.9 66 46 7.2 45 0
17:30 1018 30.06 848 25.04 18.9 66 46 7 44.6 0
17:35 1019 30.09 848 25.04 19 66.2 44 6.8 44.2 0
17:40 1018 30.06 848 25.04 19.1 66.4 44 6.6 43.8 0
17:45 1018 30.06 848 25.04 19.2 66.6 43 6.6 43.8 0
17:50 1018 30.06 848 25.04 19.2 66.5 47 7.7 45.9 0
17:55 1018 30.06 848 25.04 19 66.3 46 7.4 45.4 0
18:00 1018 30.06 848 25.04 19.1 66.4 44 6.8 44.3 0
18:05 1018 30.06 847 25.01 19.3 66.7 44 6.9 44.5 0
18:10 1018 30.06 847 25.01 19.4 66.9 42 6.3 43.3 0
18:15 1018 30.06 847 25.01 19.6 67.3 38 5.2 41.4 0
18:20 1018 30.06 848 25.04 20.1 68.1 37 5.2 41.4 0
18:25 1018 30.06 848 25.04 20.3 68.5 38 5.5 41.9 0
18:30 1018 30.06 848 25.04 20.2 68.3 41 6.7 44 0
18:35 1018 30.06 847 25.01 19.9 67.8 39 5.8 42.5 0
18:40 1018 30.06 848 25.04 19.6 67.3 50 8.9 48.1 0
18:45 1018 30.06 847 25.01 19.2 66.5 48 7.9 46.2 0
18:50 1018 30.06 847 25.01 18.9 66.1 45 6.8 44.3 0
18:55 1018 30.06 847 25.01 18.9 66.1 52 9 48.3 0
19:00 1018 30.06 847 25.01 18.8 65.8 51 8.4 47.2 0
19:05 1018 30.06 847 25.01 18.7 65.6 55 9.4 49 0
19:10 1018 30.06 847 25.01 18.3 64.9 48 7.2 45 0
19:15 1018 30.06 847 25.01 18.6 65.4 45 6.7 44 0
19:20 1018 30.06 847 25.01 18.4 65.2 54 9.2 48.5 0
19:25 1018 30.06 847 25.01 17.3 63.1 55 8.3 46.9 0
19:30 1018 30.06 847 25.01 17 62.6 56 8.2 46.8 0
19:35 1018 30.06 847 25.01 16.6 61.8 58 8.3 46.9 0
19:40 1018 30.06 847 25.01 16.9 62.5 42 4.2 39.5 0
19:45 1018 30.06 847 25.01 18.1 64.6 38 3.9 38.9 0
19:50 1018 30.06 847 25.01 18.3 65 37 3.6 38.5 0
19:55 1018 30.06 847 25.01 18.5 65.3 36 3.2 37.7 0
20:00 1018 30.06 847 25.01 18.7 65.6 37 3.7 38.7 0
20:05 1018 30.06 847 25.01 18.3 64.9 38 3.7 38.7 0
20:10 1018 30.06 847 25.01 18.2 64.8 37 3.6 38.5 0
20:15 1018 30.06 847 25.01 18.3 64.9 37 3.3 38 0
20:20 1018 30.06 847 25.01 18.5 65.3 37 3.7 38.6 0
20:25 1018 30.06 847 25.01 18.4 65 39 4.3 39.8 0
20:30 1018 30.06 847 25.01 17.6 63.6 42 4.6 40.3 0
20:35 1018 30.06 847 25.01 17.5 63.6 40 3.9 39.1 0
20:40 1018 30.06 847 25.01 17.7 63.8 41 4.5 40.1 0
20:45 1018 30.06 847 25.01 17.4 63.4 44 5.3 41.5 0
20:50 1018 30.06 847 25.01 17 62.6 45 5.2 41.3 0
20:55 1018 30.06 847 25.01 16.9 62.5 45 4.9 40.9 0
21:00 1018 30.06 847 25.01 17 62.6 44 4.7 40.5 0
21:05 1018 30.06 847 25.01 16.9 62.4 44 4.6 40.2 0
21:10 1018 30.06 847 25.01 16.8 62.3 45 4.9 40.8 0
21:15 1018 30.06 847 25.01 16.6 61.8 45 4.8 40.7 0
21:20 1018 30.06 847 25.01 16.2 61.1 49 5.5 41.8 0
21:25 1018 30.06 847 25.01 15.9 60.5 49 5.3 41.5 0
21:30 1018 30.06 848 25.04 15.8 60.4 48 4.9 40.8 0
21:35 1018 30.06 848 25.04 15.8 60.5 46 4.4 39.9 0
21:40 1018 30.06 848 25.04 16.3 61.3 46 4.9 40.8 0
21:45 1018 30.06 848 25.04 16.2 61.1 50 5.7 42.3 0
21:50 1018 30.06 848 25.04 15.6 60.2 50 5.4 41.8 0
21:55 1018 30.06 848 25.04 15.5 59.9 51 5.4 41.8 0
22:00 1019 30.09 848 25.04 15.6 60.1 49 5.1 41.2 0
22:05 1018 30.06 848 25.04 15.8 60.5 49 5.2 41.3 0
22:10 1018 30.06 848 25.04 15.8 60.4 49 5.3 41.5 0
22:15 1018 30.06 848 25.04 15.7 60.3 48 4.9 40.8 0
22:20 1018 30.06 848 25.04 15.7 60.3 50 5.5 41.9 0
22:25 1018 30.06 848 25.04 15.6 60 52 6 42.7 0
22:30 1018 30.06 848 25.04 15.4 59.7 54 6.2 43.1 0
22:35 1018 30.06 847 25.01 14.8 58.6 57 6.3 43.4 0
22:40 1018 30.06 847 25.01 14.7 58.5 57 6.3 43.3 0
22:45 1018 30.06 847 25.01 14.2 57.6 60 6.6 43.9 0
22:50 1018 30.06 847 25.01 14.1 57.5 59 6.4 43.5 0
22:55 1018 30.06 847 25.01 14.3 57.8 54 5.3 41.5 0
23:00 1018 30.06 847 25.01 15.1 59.1 48 4.3 39.8 0
23:05 1018 30.06 847 25.01 16.1 61 46 4.6 40.2 0
23:10 1018 30.06 847 25.01 16.3 61.3 47 5.2 41.3 0
23:15 1018 30.06 847 25.01 15.6 60.1 52 5.9 42.6 0
23:20 1018 30.06 847 25.01 15 59 56 6.4 43.5 0
23:25 1018 30.06 847 25.01 14.6 58.2 59 6.6 44 0
23:30 1018 30.06 847 25.01 14.3 57.8 58 6.2 43.1 0
23:35 1018 30.06 847 25.01 14.3 57.7 56 5.8 42.4 0
23:40 1018 30.06 847 25.01 14.5 58.2 54 5.5 41.8 0
23:45 1018 30.06 847 25.01 14.6 58.2 56 5.8 42.5 0
23:50 1018 30.06 847 25.01 14.5 58 55 5.5 41.9 0
23:55 1018 30.06 847 25.01 14.6 58.2 55 5.6 42 0
24:00 1018 30.06 847 25.01 14.1 57.3 58 6 42.8 0